EDT,Max TemperatureF,Mean TemperatureF,Min TemperatureF,Max Dew PointF,MeanDew PointF,Min DewpointF,Max Humidity, Mean Humidity, Min Humidity, Max Sea Level PressureIn, Mean Sea Level PressureIn, Min Sea Level PressureIn, Max VisibilityMiles, Mean VisibilityMiles, Min VisibilityMiles, Max Wind SpeedMPH, Mean Wind SpeedMPH, Max Gust SpeedMPH,PrecipitationIn, CloudCover, Events, WindDirDegrees
2012-9-1,82,75,68,66,61,57,78,67,45,30.13,30.08,30.05,10,10,8,8,3,,0.00,3,,224
2012-9-2,75,70,66,66,63,59,87,79,65,30.10,30.07,30.03,10,9,7,6,2,,0.00,7,Rain,38
2012-9-3,75,72,69,70,67,66,94,88,78,30.09,30.06,30.03,10,6,2,7,3,,0.00,8,,97
2012-9-4,78,74,69,70,69,68,95,88,69,30.05,29.94,29.80,10,8,3,9,4,,0.05,7,Rain-Thunderstorm,194
2012-9-5,78,72,64,69,65,59,96,85,51,29.92,29.87,29.83,10,9,3,7,1,,0.03,5,Rain-Thunderstorm,327
2012-9-6,84,73,62,67,64,61,100,82,51,29.94,29.91,29.88,10,10,7,12,2,,0.00,3,Rain-Thunderstorm,222
2012-9-7,84,74,63,66,63,59,100,80,42,29.99,29.92,29.83,10,8,0,13,3,,0.00,3,Fog-Rain-Thunderstorm,242
2012-9-8,71,62,53,66,61,51,93,84,72,29.87,29.75,29.64,10,9,2,17,6,40,0.00,3,Rain,224
2012-9-9,71,60,50,54,50,46,100,78,43,30.02,29.92,29.86,10,10,4,12,4,,0.00,2,,270
2012-9-10,68,57,46,48,44,37,100,71,33,30.21,30.10,30.02,10,10,10,17,2,23,0.00,2,,319
2012-9-11,69,56,42,50,45,40,93,75,43,30.32,30.27,30.21,10,10,10,7,1,,0.00,0,,216
2012-9-12,77,62,46,54,49,45,96,74,36,30.38,30.33,30.30,10,10,7,9,2,,0.00,0,,205
2012-9-13,78,64,50,57,53,50,100,75,42,30.39,30.33,30.27,10,9,1,9,1,,0.00,0,,210
2012-9-14,78,66,53,58,55,48,100,76,34,30.30,30.22,30.11,10,9,5,12,2,25,0.00,2,Rain,271
2012-9-15,69,60,50,63,47,39,91,69,33,30.28,30.21,30.15,10,10,10,14,5,20,0.00,2,,303
2012-9-16,71,58,44,48,44,39,93,70,31,30.20,30.14,30.09,10,10,10,7,1,,0.00,1,,297
2012-9-17,73,58,44,58,49,43,100,74,38,30.13,30.05,29.94,10,10,10,17,2,,0.00,2,,192
2012-9-18,69,62,54,66,59,49,100,86,76,29.93,29.76,29.56,10,8,2,16,6,23,0.01,7,Rain,224
2012-9-19,62,53,44,48,41,32,93,70,34,30.19,30.06,29.88,10,10,10,18,6,25,0.00,1,,282
2012-9-20,68,52,37,48,42,37,100,77,40,30.19,30.12,30.04,10,8,0,13,2,,0.00,1,Fog,199
2012-9-21,71,62,53,61,53,48,88,76,57,30.05,30.00,29.91,10,10,7,17,3,21,0.01,3,Rain,225
2012-9-22,71,62,50,58,53,42,85,74,56,30.00,29.86,29.80,10,10,10,18,7,29,0.00,5,Rain,223
2012-9-23,60,52,44,43,41,37,87,72,42,30.18,30.09,30.00,10,10,10,15,6,16,0.00,6,Rain,282
2012-9-24,59,50,40,43,38,32,93,71,36,30.21,30.15,30.10,10,10,10,17,4,,0.00,4,,243
2012-9-25,62,50,39,52,43,36,93,73,45,30.16,30.11,30.06,10,10,7,12,3,18,0.07,4,Rain,213
2012-9-26,66,60,53,61,56,51,100,89,78,30.11,30.07,30.03,10,9,5,14,3,,0.00,7,Rain,238
2012-9-27,64,60,57,61,57,54,100,90,68,30.23,30.14,30.11,10,6,0,12,4,,0.60,8,Fog-Rain-Thunderstorm,4
2012-9-28,64,58,53,57,53,46,100,87,56,30.11,30.06,30.03,10,6,0,13,4,,0.00,8,Fog-Rain,342
2012-9-29,60,52,44,48,45,41,100,81,51,30.05,30.00,29.94,10,10,10,12,3,,0.00,5,,306
2012-9-30,62,53,44,55,45,41,100,84,48,29.94,29.89,29.83,10,8,1,12,1,,0.00,4,Thunderstorm,284